Southside Place, Texas
Current Conditions -  °F | °C
As of 9:35 PM on Friday 19 Dec 2014 (Local Time) from KMCJ Reporting Station
Overcast Overcast  
Wind Chill: 54°   Ceiling: 600
Heat Index: 54°   Visibility: NA
Dew Point: 52°   Wind: 15mph
Humidity: 94%   Direction: 340°NNW
Pressure: 30.08"   Gusts: NA
Location:  29.7181°N, 95.4241°W
Report Text: KMCJ 200335Z AUTO 34013KT OVC006 12/11 A3008 RMK AO1
Loading
Personal Weather Stations






























Interactive Weather Map New forecast layout! Learn more

10-Day Weather Forecast

Advertisements
Track Severe Weather on mobile